createdAt,value
2023-01-19T00:00:34.285Z,8.77
2023-01-19T00:01:36.513Z,8.90
2023-01-19T00:02:39.020Z,8.70
2023-01-19T00:03:41.185Z,8.40
2023-01-19T00:04:43.363Z,8.70
2023-01-19T00:05:46.102Z,8.73
2023-01-19T00:06:48.440Z,8.67
2023-01-19T00:07:50.633Z,8.73
2023-01-19T00:08:52.806Z,8.33
2023-01-19T00:09:55.017Z,8.50
2023-01-19T00:10:57.206Z,8.63
2023-01-19T00:12:00.254Z,9.27
2023-01-19T00:13:02.805Z,8.57
2023-01-19T00:14:05.243Z,8.37
2023-01-19T00:15:08.187Z,8.90
2023-01-19T00:16:10.416Z,8.53
2023-01-19T00:17:12.693Z,8.67
2023-01-19T00:18:17.462Z,8.47
2023-01-19T00:19:19.611Z,8.10
2023-01-19T00:20:21.848Z,8.57
2023-01-19T00:21:24.766Z,8.43
2023-01-19T00:22:26.952Z,8.20
2023-01-19T00:23:29.132Z,8.40
2023-01-19T00:24:31.415Z,7.80
2023-01-19T00:25:42.766Z,8.53
2023-01-19T00:26:45.131Z,8.10
2023-01-19T00:27:49.531Z,8.33
2023-01-19T00:28:53.060Z,7.60
2023-01-19T00:29:55.254Z,8.20
2023-01-19T00:30:57.453Z,8.00
2023-01-19T00:32:00.750Z,7.90
2023-01-19T00:33:03.446Z,7.43
2023-01-19T00:34:06.547Z,7.90
2023-01-19T00:35:08.916Z,6.97
2023-01-19T00:36:11.115Z,8.40
2023-01-19T00:37:13.289Z,7.93
2023-01-19T00:38:15.537Z,7.43
2023-01-19T00:39:17.698Z,7.80
2023-01-19T00:40:19.953Z,8.30
2023-01-19T00:41:42.547Z,8.20
2023-01-19T00:42:44.740Z,7.20
2023-01-19T00:43:46.958Z,7.60
2023-01-19T00:44:49.229Z,7.60
2023-01-19T00:45:51.580Z,7.57
2023-01-19T00:46:54.056Z,8.83
2023-01-19T00:47:57.411Z,8.23
2023-01-19T00:48:59.612Z,8.23
2023-01-19T00:50:01.904Z,8.00
2023-01-19T00:51:04.359Z,7.90
2023-01-19T00:52:06.745Z,8.43
2023-01-19T00:53:08.978Z,8.30
2023-01-19T00:54:11.163Z,8.30
2023-01-19T00:55:15.372Z,7.90
2023-01-19T00:56:17.912Z,8.37
2023-01-19T00:57:20.090Z,8.27
2023-01-19T00:58:22.948Z,8.17
2023-01-19T00:59:25.943Z,8.07
2023-01-19T01:00:28.176Z,8.57
2023-01-19T01:01:45.514Z,8.13
2023-01-19T01:02:51.338Z,8.20
2023-01-19T01:03:53.678Z,8.07
2023-01-19T01:04:56.874Z,8.07
2023-01-19T01:05:59.579Z,8.17
2023-01-19T01:07:01.848Z,8.30
2023-01-19T01:08:04.158Z,7.93
2023-01-19T01:09:12.140Z,8.23
2023-01-19T01:10:17.698Z,8.10
2023-01-19T01:11:19.904Z,8.00
2023-01-19T01:12:25.514Z,7.80
2023-01-19T01:13:28.463Z,8.20
2023-01-19T01:14:31.171Z,7.87
2023-01-19T01:15:33.488Z,7.70
2023-01-19T01:16:35.692Z,7.80
2023-01-19T01:17:46.617Z,7.27
2023-01-19T01:18:48.940Z,7.47
2023-01-19T01:19:52.541Z,7.55
2023-01-19T01:21:04.258Z,7.17
2023-01-19T01:22:06.947Z,7.88
2023-01-19T01:23:09.306Z,7.75
2023-01-19T01:24:11.583Z,7.63
2023-01-19T01:25:15.624Z,8.20
2023-01-19T01:26:17.927Z,7.40
2023-01-19T01:27:20.106Z,7.35
2023-01-19T01:28:22.304Z,7.67
2023-01-19T01:29:24.506Z,7.40
2023-01-19T01:30:26.724Z,7.40
2023-01-19T01:31:29.078Z,7.20
2023-01-19T01:32:31.282Z,6.85
2023-01-19T01:33:40.904Z,7.50
2023-01-19T01:34:44.081Z,7.30
2023-01-19T01:35:46.329Z,7.45
2023-01-19T01:36:48.512Z,7.50
2023-01-19T01:37:50.674Z,7.87
2023-01-19T01:38:52.850Z,7.70
2023-01-19T01:39:55.145Z,7.27
2023-01-19T01:40:57.412Z,7.13
2023-01-19T01:41:59.614Z,7.03
2023-01-19T01:43:02.976Z,7.53
2023-01-19T01:44:49.819Z,7.45
2023-01-19T01:45:54.018Z,7.15
2023-01-19T01:46:57.293Z,7.15
2023-01-19T01:48:09.190Z,7.03
2023-01-19T01:49:16.361Z,7.00
2023-01-19T01:50:25.373Z,7.03
2023-01-19T01:51:34.702Z,6.68
2023-01-19T01:52:43.957Z,7.38
2023-01-19T01:54:18.105Z,6.80
2023-01-19T01:55:23.204Z,7.38
2023-01-19T01:56:32.665Z,7.40
2023-01-19T01:57:39.327Z,7.55
2023-01-19T01:58:42.107Z,7.20
2023-01-19T01:59:48.060Z,7.15
2023-01-19T02:01:08.712Z,7.07
2023-01-19T02:02:36.931Z,7.03
2023-01-19T02:03:39.493Z,6.75
2023-01-19T02:04:46.869Z,6.82
2023-01-19T02:05:51.932Z,7.00
2023-01-19T02:07:12.890Z,6.57
2023-01-19T02:08:43.696Z,6.68
2023-01-19T02:10:04.612Z,6.72
2023-01-19T02:11:29.502Z,7.10
2023-01-19T02:12:51.078Z,6.53
2023-01-19T02:13:53.588Z,6.85
2023-01-19T02:14:55.840Z,7.00
2023-01-19T02:16:01.169Z,7.00
2023-01-19T02:17:06.232Z,6.80
2023-01-19T02:18:08.525Z,6.68
2023-01-19T02:19:18.960Z,6.07
2023-01-19T02:20:23.867Z,7.00
2023-01-19T02:21:43.053Z,7.32
2023-01-19T02:22:52.114Z,6.57
2023-01-19T02:23:56.865Z,6.75
2023-01-19T02:24:59.214Z,6.82
2023-01-19T02:26:02.470Z,6.43
2023-01-19T02:27:06.001Z,7.03
2023-01-19T02:28:08.238Z,6.80
2023-01-19T02:29:18.038Z,6.95
2023-01-19T02:30:20.296Z,6.82
2023-01-19T02:31:22.530Z,6.03
2023-01-19T02:32:24.835Z,6.55
2023-01-19T02:33:27.237Z,6.53
2023-01-19T02:34:30.272Z,6.38
2023-01-19T02:35:33.054Z,6.70
2023-01-19T02:36:41.075Z,6.50
2023-01-19T02:37:45.155Z,5.78
2023-01-19T02:38:51.262Z,6.47
2023-01-19T02:39:58.059Z,7.05
2023-01-19T02:41:02.827Z,6.45
2023-01-19T02:42:13.074Z,6.55
2023-01-19T02:43:18.301Z,6.55
2023-01-19T02:44:23.014Z,6.60
2023-01-19T02:45:25.295Z,6.75
2023-01-19T02:46:27.584Z,6.18
2023-01-19T02:47:38.837Z,6.63
2023-01-19T02:48:42.015Z,6.63
2023-01-19T02:49:44.209Z,6.35
2023-01-19T02:50:53.125Z,6.57
2023-01-19T02:51:55.500Z,6.10
2023-01-19T02:53:06.448Z,5.70
2023-01-19T02:54:22.611Z,6.47
2023-01-19T02:55:28.269Z,6.50
2023-01-19T02:56:57.825Z,6.60
2023-01-19T02:58:23.259Z,6.55
2023-01-19T03:00:13.430Z,6.03
2023-01-19T03:01:27.056Z,6.20
2023-01-19T03:02:44.288Z,5.90
2023-01-19T03:04:09.700Z,5.85
2023-01-19T03:05:42.713Z,6.23
2023-01-19T03:06:50.263Z,6.93
2023-01-19T03:08:21.843Z,6.07
2023-01-19T03:09:35.175Z,5.93
2023-01-19T03:11:06.790Z,6.00
2023-01-19T03:12:22.595Z,6.03
2023-01-19T03:13:35.585Z,6.05
2023-01-19T03:14:45.035Z,5.93
2023-01-19T03:15:52.503Z,6.40
2023-01-19T03:16:59.449Z,6.72
2023-01-19T03:18:03.436Z,5.80
2023-01-19T03:19:28.412Z,5.68
2023-01-19T03:20:30.721Z,5.57
2023-01-19T03:21:36.498Z,6.22
2023-01-19T03:22:39.513Z,6.75
2023-01-19T03:23:44.792Z,6.35
2023-01-19T03:24:48.253Z,6.05
2023-01-19T03:25:54.183Z,5.60
2023-01-19T03:27:02.169Z,5.90
2023-01-19T03:28:05.580Z,5.68
2023-01-19T03:29:10.299Z,5.78
2023-01-19T03:30:18.758Z,5.93
2023-01-19T03:31:26.215Z,5.32
2023-01-19T03:32:37.136Z,6.00
2023-01-19T03:33:43.461Z,5.57
2023-01-19T03:34:49.454Z,5.40
2023-01-19T03:35:57.129Z,5.38
2023-01-19T03:37:03.240Z,5.60
2023-01-19T03:38:09.898Z,5.45
2023-01-19T03:39:15.690Z,5.38
2023-01-19T03:40:17.996Z,4.80
2023-01-19T03:41:24.398Z,5.38
2023-01-19T03:42:28.573Z,4.97
2023-01-19T03:43:32.704Z,5.13
2023-01-19T03:44:40.422Z,5.20
2023-01-19T03:45:43.698Z,5.03
2023-01-19T03:46:48.169Z,4.95
2023-01-19T03:47:50.830Z,4.97
2023-01-19T03:48:53.607Z,5.07
2023-01-19T03:49:56.820Z,4.32
2023-01-19T03:51:04.066Z,4.57
2023-01-19T03:52:06.493Z,4.35
2023-01-19T03:53:11.549Z,3.90
2023-01-19T03:54:16.204Z,3.90
2023-01-19T03:55:18.417Z,4.20
2023-01-19T03:56:23.242Z,4.30
2023-01-19T03:57:25.452Z,4.05
2023-01-19T03:58:28.429Z,4.10
2023-01-19T03:59:30.628Z,3.50
2023-01-19T04:00:34.029Z,3.90
2023-01-19T04:01:36.346Z,3.63
2023-01-19T04:02:38.668Z,3.65
2023-01-19T04:03:41.858Z,4.07
2023-01-19T04:04:44.103Z,4.30
2023-01-19T04:05:46.864Z,4.25
2023-01-19T04:06:49.126Z,4.15
2023-01-19T04:07:52.489Z,3.75
2023-01-19T04:08:54.940Z,4.10
2023-01-19T04:09:58.397Z,3.90
2023-01-19T04:11:00.772Z,4.10
2023-01-19T04:12:03.921Z,4.10
2023-01-19T04:13:06.715Z,4.43
2023-01-19T04:14:09.041Z,4.38
2023-01-19T04:15:11.773Z,4.78
2023-01-19T04:16:20.908Z,4.50
2023-01-19T04:17:23.157Z,4.20
2023-01-19T04:18:25.349Z,4.07
2023-01-19T04:19:27.606Z,3.85
2023-01-19T04:20:30.074Z,3.88
2023-01-19T04:21:32.253Z,3.97
2023-01-19T04:22:34.701Z,3.63
2023-01-19T04:23:37.072Z,3.50
2023-01-19T04:24:39.242Z,3.35
2023-01-19T04:25:41.449Z,3.20
2023-01-19T04:26:43.975Z,3.75
2023-01-19T04:27:46.198Z,3.70
2023-01-19T04:28:48.635Z,3.78
2023-01-19T04:29:52.556Z,3.53
2023-01-19T04:30:55.000Z,3.22
2023-01-19T04:31:57.590Z,3.42
2023-01-19T04:33:00.329Z,3.50
2023-01-19T04:34:03.507Z,3.30
2023-01-19T04:35:06.079Z,3.20
2023-01-19T04:36:08.824Z,3.50
2023-01-19T04:37:11.113Z,3.40
2023-01-19T04:38:13.587Z,3.20
2023-01-19T04:39:16.745Z,3.65
2023-01-19T04:40:18.997Z,3.30
2023-01-19T04:41:21.441Z,3.45
2023-01-19T04:42:24.721Z,3.25
2023-01-19T04:43:26.884Z,3.20
2023-01-19T04:44:29.025Z,3.15
2023-01-19T04:45:31.224Z,3.45
2023-01-19T04:46:33.551Z,3.45
2023-01-19T04:47:35.754Z,3.75
2023-01-19T04:48:40.115Z,3.33
2023-01-19T04:49:43.463Z,3.30
2023-01-19T04:50:46.022Z,3.20
2023-01-19T04:51:48.276Z,3.10
2023-01-19T04:52:51.051Z,2.92
2023-01-19T04:53:53.265Z,3.40
2023-01-19T04:54:55.597Z,3.10
2023-01-19T04:55:59.790Z,3.40
2023-01-19T04:57:02.042Z,3.30
2023-01-19T04:58:04.424Z,3.15
2023-01-19T04:59:07.216Z,3.10
2023-01-19T05:00:10.445Z,2.95
2023-01-19T05:01:12.689Z,3.28
2023-01-19T05:02:15.055Z,3.40
2023-01-19T05:03:19.598Z,3.47
2023-01-19T05:04:22.535Z,3.20
2023-01-19T05:05:25.328Z,3.23
2023-01-19T05:06:27.843Z,3.50
2023-01-19T05:07:30.194Z,3.20
2023-01-19T05:08:32.392Z,3.42
2023-01-19T05:09:35.505Z,3.40
2023-01-19T05:10:37.714Z,3.40
2023-01-19T05:11:40.108Z,3.35
2023-01-19T05:12:42.386Z,3.45
2023-01-19T05:13:44.566Z,3.95
2023-01-19T05:14:46.836Z,4.18
2023-01-19T05:15:49.184Z,4.13
2023-01-19T05:16:52.592Z,4.60
2023-01-19T05:17:55.346Z,6.38
2023-01-19T05:18:57.505Z,6.18
2023-01-19T05:19:59.700Z,5.65
2023-01-19T05:21:05.093Z,6.60
2023-01-19T05:22:07.402Z,5.50
2023-01-19T05:23:09.752Z,4.55
2023-01-19T05:24:11.947Z,4.10
2023-01-19T05:25:14.187Z,4.00
2023-01-19T05:26:16.826Z,4.15
2023-01-19T05:27:19.067Z,4.25
2023-01-19T05:28:21.826Z,3.80
2023-01-19T05:29:24.175Z,3.70
2023-01-19T05:30:26.501Z,3.25
2023-01-19T05:31:28.716Z,3.60
2023-01-19T05:32:34.659Z,3.50
2023-01-19T05:33:36.854Z,3.42
2023-01-19T05:34:39.550Z,2.83
2023-01-19T05:35:41.978Z,3.17
2023-01-19T05:36:44.239Z,3.40
2023-01-19T05:37:48.953Z,3.35
2023-01-19T05:38:51.204Z,3.40
2023-01-19T05:39:56.417Z,3.20
2023-01-19T05:40:59.117Z,3.40
2023-01-19T05:42:01.292Z,3.30
2023-01-19T05:43:05.440Z,3.65
2023-01-19T05:44:09.757Z,3.70
2023-01-19T05:45:12.607Z,3.40
2023-01-19T05:46:14.890Z,3.47
2023-01-19T05:47:17.121Z,3.28
2023-01-19T05:48:19.391Z,3.33
2023-01-19T05:49:21.729Z,3.20
2023-01-19T05:50:23.933Z,3.58
2023-01-19T05:51:26.119Z,3.20
2023-01-19T05:52:28.290Z,3.10
2023-01-19T05:53:30.603Z,3.88
2023-01-19T05:54:32.919Z,3.95
2023-01-19T05:55:35.258Z,4.15
2023-01-19T05:56:39.491Z,4.35
2023-01-19T05:57:43.229Z,4.40
2023-01-19T05:58:45.780Z,3.97
2023-01-19T05:59:48.111Z,4.25
2023-01-19T06:00:50.288Z,4.10
2023-01-19T06:01:53.210Z,3.83
2023-01-19T06:02:55.519Z,3.70
2023-01-19T06:03:57.822Z,3.55
2023-01-19T06:05:00.098Z,3.38
2023-01-19T06:06:03.827Z,3.60
2023-01-19T06:07:07.050Z,3.53
2023-01-19T06:08:09.232Z,3.30
2023-01-19T06:09:11.505Z,3.20
2023-01-19T06:10:13.828Z,3.15
2023-01-19T06:11:16.116Z,3.33
2023-01-19T06:12:18.583Z,3.45
2023-01-19T06:13:21.513Z,3.40
2023-01-19T06:14:23.941Z,3.63
2023-01-19T06:15:26.121Z,3.55
2023-01-19T06:16:28.570Z,3.42
2023-01-19T06:17:34.766Z,12.45
2023-01-19T06:18:37.270Z,12.98
2023-01-19T06:19:42.490Z,11.10
2023-01-19T06:20:44.672Z,9.68
2023-01-19T06:21:52.609Z,8.85
2023-01-19T06:22:57.749Z,7.47
2023-01-19T06:24:00.165Z,6.85
2023-01-19T06:25:03.008Z,6.45
2023-01-19T06:26:05.639Z,5.28
2023-01-19T06:27:08.172Z,4.70
2023-01-19T06:28:10.364Z,4.43
2023-01-19T06:29:12.730Z,3.97
2023-01-19T06:30:15.138Z,3.83
2023-01-19T06:31:17.319Z,3.78
2023-01-19T06:32:20.259Z,4.20
2023-01-19T06:33:24.484Z,3.83
2023-01-19T06:34:29.130Z,3.50
2023-01-19T06:35:31.438Z,3.35
2023-01-19T06:36:33.739Z,3.40
2023-01-19T06:37:36.972Z,3.85
2023-01-19T06:38:39.215Z,3.72
2023-01-19T06:39:42.469Z,3.75
2023-01-19T06:40:46.216Z,3.35
2023-01-19T06:41:48.399Z,3.40
2023-01-19T06:42:50.641Z,3.60
2023-01-19T06:43:55.345Z,3.90
2023-01-19T06:44:57.605Z,3.45
2023-01-19T06:46:00.821Z,3.85
2023-01-19T06:47:16.032Z,3.45
2023-01-19T06:48:18.921Z,3.97
2023-01-19T06:49:21.084Z,4.10
2023-01-19T06:50:24.611Z,4.15
2023-01-19T06:51:27.113Z,4.13
2023-01-19T06:52:29.499Z,7.53
2023-01-19T06:53:31.743Z,5.78
2023-01-19T06:54:33.943Z,5.40
2023-01-19T06:55:36.594Z,4.93
2023-01-19T06:56:38.891Z,4.85
2023-01-19T06:57:41.156Z,4.97
2023-01-19T06:58:43.464Z,5.10
2023-01-19T06:59:45.665Z,5.20
2023-01-19T07:00:49.124Z,4.80
2023-01-19T07:01:51.448Z,4.38
2023-01-19T07:02:53.742Z,4.82
2023-01-19T07:03:56.047Z,5.30
2023-01-19T07:04:58.210Z,5.75
2023-01-19T07:06:06.895Z,5.13
2023-01-19T07:07:09.141Z,4.88
2023-01-19T07:08:11.333Z,5.20
2023-01-19T07:09:16.192Z,5.35
2023-01-19T07:10:19.128Z,5.63
2023-01-19T07:11:24.639Z,5.47
2023-01-19T07:12:31.122Z,5.13
2023-01-19T07:13:34.824Z,5.55
2023-01-19T07:14:37.394Z,5.30
2023-01-19T07:15:39.866Z,5.72
2023-01-19T07:16:44.747Z,5.47
2023-01-19T07:17:46.965Z,6.00
2023-01-19T07:18:50.250Z,5.70
2023-01-19T07:19:52.427Z,5.38
2023-01-19T07:20:57.905Z,5.18
2023-01-19T07:22:02.469Z,5.10
2023-01-19T07:23:04.947Z,5.20
2023-01-19T07:24:07.201Z,5.55
2023-01-19T07:25:09.920Z,5.35
2023-01-19T07:26:15.446Z,5.25
2023-01-19T07:27:17.749Z,5.05
2023-01-19T07:28:21.066Z,4.50
2023-01-19T07:29:23.328Z,5.18
2023-01-19T07:30:25.765Z,5.00
2023-01-19T07:31:28.179Z,5.28
2023-01-19T07:32:30.813Z,4.93
2023-01-19T07:33:36.061Z,5.43
2023-01-19T07:34:38.386Z,5.18
2023-01-19T07:35:40.518Z,4.90
2023-01-19T07:36:42.737Z,4.90
2023-01-19T07:37:44.946Z,4.40
2023-01-19T07:38:47.173Z,4.72
2023-01-19T07:39:49.416Z,5.03
2023-01-19T07:40:51.586Z,5.10
2023-01-19T07:41:53.978Z,4.38
2023-01-19T07:42:58.860Z,4.85
2023-01-19T07:44:01.279Z,4.75
2023-01-19T07:45:04.378Z,4.97
2023-01-19T07:46:10.966Z,4.70
2023-01-19T07:47:13.255Z,4.80
2023-01-19T07:48:15.478Z,4.97
2023-01-19T07:49:17.729Z,4.70
2023-01-19T07:50:24.544Z,4.40
2023-01-19T07:51:28.499Z,4.93
2023-01-19T07:52:30.691Z,4.60
2023-01-19T07:53:33.001Z,4.88
2023-01-19T07:54:35.190Z,4.72
2023-01-19T07:55:37.605Z,4.65
2023-01-19T07:56:39.738Z,5.03
2023-01-19T07:57:41.867Z,4.72
2023-01-19T07:58:44.046Z,5.18
2023-01-19T07:59:46.272Z,5.18
2023-01-19T08:00:48.503Z,5.10
2023-01-19T08:01:50.967Z,4.95
2023-01-19T08:02:54.048Z,5.18
2023-01-19T08:03:56.232Z,4.63
2023-01-19T08:04:58.416Z,5.22
2023-01-19T08:06:00.725Z,4.90
2023-01-19T08:07:03.909Z,4.72
2023-01-19T08:08:07.496Z,5.10
2023-01-19T08:09:10.182Z,4.97
2023-01-19T08:10:14.950Z,5.22
2023-01-19T08:11:17.169Z,4.97
2023-01-19T08:12:19.356Z,5.15
2023-01-19T08:13:21.564Z,5.28
2023-01-19T08:14:23.743Z,5.90
2023-01-19T08:15:26.237Z,5.93
2023-01-19T08:16:28.527Z,5.57
2023-01-19T08:17:30.752Z,6.07
2023-01-19T08:18:33.161Z,5.87
2023-01-19T08:19:35.327Z,5.87
2023-01-19T08:20:38.041Z,6.30
2023-01-19T08:21:40.243Z,5.40
2023-01-19T08:22:42.424Z,5.53
2023-01-19T08:23:44.609Z,5.67
2023-01-19T08:24:48.947Z,5.30
2023-01-19T08:25:52.399Z,5.67
2023-01-19T08:27:01.823Z,5.33
2023-01-19T08:28:06.197Z,5.37
2023-01-19T08:29:08.343Z,5.43
2023-01-19T08:30:11.191Z,5.47
2023-01-19T08:31:20.424Z,5.43
2023-01-19T08:32:23.970Z,5.33
2023-01-19T08:33:26.235Z,5.10
2023-01-19T08:34:31.288Z,4.93
2023-01-19T08:35:45.862Z,5.10
2023-01-19T08:36:48.093Z,5.13
2023-01-19T08:37:51.497Z,4.80
2023-01-19T08:38:53.836Z,5.00
2023-01-19T08:39:56.020Z,4.80
2023-01-19T08:40:58.238Z,5.03
2023-01-19T08:42:00.883Z,5.23
2023-01-19T08:43:07.922Z,5.03
2023-01-19T08:44:10.119Z,5.40
2023-01-19T08:45:12.856Z,5.30
2023-01-19T08:46:17.704Z,4.80
2023-01-19T08:47:20.184Z,5.00
2023-01-19T08:48:23.684Z,5.20
2023-01-19T08:49:25.912Z,5.13
2023-01-19T08:50:30.169Z,4.60
2023-01-19T08:51:32.472Z,4.70
2023-01-19T08:52:34.680Z,4.77
2023-01-19T08:53:36.806Z,5.20
2023-01-19T08:54:38.997Z,4.60
2023-01-19T08:55:41.645Z,4.93
2023-01-19T08:56:44.719Z,4.63
2023-01-19T08:57:53.715Z,4.73
2023-01-19T08:59:08.125Z,4.60
2023-01-19T09:00:12.304Z,5.17
2023-01-19T09:01:17.152Z,5.30
2023-01-19T09:02:19.445Z,4.90
2023-01-19T09:03:22.897Z,5.23
2023-01-19T09:04:27.507Z,4.93
2023-01-19T09:05:36.374Z,5.20
2023-01-19T09:06:38.566Z,5.40
2023-01-19T09:07:41.838Z,5.37
2023-01-19T09:08:46.271Z,5.30
2023-01-19T09:09:48.439Z,5.27
2023-01-19T09:10:51.564Z,5.60
2023-01-19T09:11:54.724Z,5.70
2023-01-19T09:12:57.508Z,5.83
2023-01-19T09:13:59.682Z,5.43
2023-01-19T09:15:01.808Z,5.13
2023-01-19T09:16:04.598Z,5.27
2023-01-19T09:17:08.538Z,4.67
2023-01-19T09:18:16.676Z,5.50
2023-01-19T09:19:18.985Z,4.90
2023-01-19T09:20:21.270Z,5.27
2023-01-19T09:21:23.496Z,5.23
2023-01-19T09:22:25.686Z,5.50
2023-01-19T09:23:28.501Z,5.50
2023-01-19T09:24:30.693Z,5.50
2023-01-19T09:25:33.065Z,5.37
2023-01-19T09:26:36.665Z,4.60
2023-01-19T09:27:38.886Z,4.17
2023-01-19T09:28:41.116Z,4.23
2023-01-19T09:29:50.314Z,4.00
2023-01-19T09:30:52.660Z,4.23
2023-01-19T09:31:55.811Z,4.27
2023-01-19T09:33:02.988Z,3.90
2023-01-19T09:34:05.224Z,4.00
2023-01-19T09:35:07.662Z,4.40
2023-01-19T09:36:10.828Z,3.97
2023-01-19T09:37:13.834Z,4.13
2023-01-19T09:38:16.980Z,4.00
2023-01-19T09:39:19.316Z,3.83
2023-01-19T09:40:21.552Z,3.80
2023-01-19T09:41:26.138Z,3.50
2023-01-19T09:42:44.467Z,4.27
2023-01-19T09:44:00.798Z,3.97
2023-01-19T09:45:07.329Z,3.03
2023-01-19T09:46:17.651Z,3.70
2023-01-19T09:47:24.977Z,3.20
2023-01-19T09:48:48.100Z,3.47
2023-01-19T09:49:58.386Z,3.50
2023-01-19T09:51:05.998Z,3.77
2023-01-19T09:52:13.438Z,3.60
2023-01-19T09:53:42.025Z,3.60
2023-01-19T09:54:54.579Z,3.80
2023-01-19T09:55:56.788Z,4.07
2023-01-19T09:56:59.011Z,3.93
2023-01-19T09:58:01.669Z,4.30
2023-01-19T09:59:31.875Z,4.17
2023-01-19T10:00:34.125Z,3.57
2023-01-19T10:01:42.710Z,3.80
2023-01-19T10:03:07.556Z,3.87
2023-01-19T10:04:40.254Z,3.43
2023-01-19T10:05:51.732Z,3.80
2023-01-19T10:07:18.856Z,3.97
2023-01-19T10:08:45.770Z,4.10
2023-01-19T10:10:19.167Z,4.07
2023-01-19T10:11:52.646Z,4.30
2023-01-19T10:13:01.464Z,4.37
2023-01-19T10:14:19.521Z,4.47
2023-01-19T10:15:38.098Z,3.60
2023-01-19T10:16:42.479Z,4.60
2023-01-19T10:18:09.689Z,4.20
2023-01-19T10:19:23.588Z,4.53
2023-01-19T10:20:35.213Z,4.47
2023-01-19T10:21:44.883Z,4.70
2023-01-19T10:22:50.000Z,4.77
2023-01-19T10:23:52.671Z,4.33
2023-01-19T10:25:11.639Z,4.60
2023-01-19T10:26:36.414Z,4.50
2023-01-19T10:27:38.743Z,4.53
2023-01-19T10:28:41.883Z,4.50
2023-01-19T10:29:47.464Z,4.30
2023-01-19T10:30:52.007Z,4.20
2023-01-19T10:32:10.349Z,4.30
2023-01-19T10:33:13.807Z,4.00
2023-01-19T10:34:21.542Z,4.30
2023-01-19T10:35:25.758Z,4.23
2023-01-19T10:36:37.034Z,4.43
2023-01-19T10:37:42.084Z,4.30
2023-01-19T10:38:44.675Z,4.23
2023-01-19T10:39:53.727Z,3.80
2023-01-19T10:41:05.029Z,3.83
2023-01-19T10:42:15.381Z,4.00
2023-01-19T10:43:37.784Z,4.30
2023-01-19T10:44:40.010Z,4.73
2023-01-19T10:45:42.353Z,4.30
2023-01-19T10:46:48.020Z,4.13
2023-01-19T10:47:53.833Z,4.57
2023-01-19T10:48:56.303Z,4.40
2023-01-19T10:49:58.590Z,4.37
2023-01-19T10:51:05.198Z,4.30
2023-01-19T10:52:19.187Z,4.17
2023-01-19T10:53:22.820Z,4.20
2023-01-19T10:54:30.974Z,4.60
2023-01-19T10:55:38.296Z,3.70
2023-01-19T10:56:41.078Z,4.43
2023-01-19T10:57:43.635Z,4.53
2023-01-19T10:58:48.414Z,4.33
2023-01-19T10:59:53.259Z,4.20
2023-01-19T11:00:55.674Z,4.00
2023-01-19T11:02:10.009Z,4.20
2023-01-19T11:03:23.816Z,4.40
2023-01-19T11:04:29.947Z,4.50
2023-01-19T11:05:33.794Z,4.10
2023-01-19T11:06:36.043Z,4.10
2023-01-19T11:07:38.254Z,4.33
2023-01-19T11:08:41.253Z,4.13
2023-01-19T11:09:43.479Z,3.90
2023-01-19T11:10:53.508Z,4.43
2023-01-19T11:11:56.328Z,5.10
2023-01-19T11:13:12.749Z,5.47
2023-01-19T11:14:19.738Z,4.97
2023-01-19T11:15:28.337Z,4.80
2023-01-19T11:16:34.921Z,4.53
2023-01-19T11:17:48.361Z,4.37
2023-01-19T11:18:56.320Z,4.60
2023-01-19T11:20:01.078Z,3.90
2023-01-19T11:21:12.286Z,3.57
2023-01-19T11:22:22.369Z,3.80
2023-01-19T11:23:43.415Z,3.53
2023-01-19T11:24:45.689Z,3.67
2023-01-19T11:25:50.289Z,3.23
2023-01-19T11:27:03.127Z,3.37
2023-01-19T11:28:05.649Z,3.43
2023-01-19T11:29:28.145Z,3.77
2023-01-19T11:30:31.903Z,3.53
2023-01-19T11:31:38.230Z,3.33
2023-01-19T11:32:41.301Z,3.53
2023-01-19T11:33:50.933Z,3.73
2023-01-19T11:34:53.241Z,3.40
2023-01-19T11:36:03.132Z,3.40
2023-01-19T11:37:27.247Z,3.23
2023-01-19T11:38:29.534Z,3.10
2023-01-19T11:39:46.663Z,3.50
2023-01-19T11:40:58.475Z,3.37
2023-01-19T11:42:06.404Z,3.27
2023-01-19T11:43:13.483Z,3.10
2023-01-19T11:44:24.289Z,3.40
2023-01-19T11:45:26.983Z,2.90
2023-01-19T11:46:33.767Z,3.10
2023-01-19T11:47:54.861Z,3.03
2023-01-19T11:49:03.543Z,3.00
2023-01-19T11:50:22.598Z,3.10
2023-01-19T11:51:31.259Z,2.63
2023-01-19T11:52:43.246Z,2.80
2023-01-19T11:53:53.345Z,3.33
2023-01-19T11:55:34.212Z,2.87
2023-01-19T11:56:36.870Z,2.60
2023-01-19T11:57:46.005Z,2.63
2023-01-19T11:58:48.288Z,3.10
2023-01-19T11:59:53.224Z,3.07
2023-01-19T12:01:35.652Z,2.83
2023-01-19T12:02:47.774Z,3.10
2023-01-19T12:04:14.414Z,2.80
2023-01-19T12:05:20.039Z,3.20
2023-01-19T12:06:30.117Z,2.90
2023-01-19T12:07:37.103Z,3.20
2023-01-19T12:08:50.118Z,3.27
2023-01-19T12:09:58.706Z,2.97
2023-01-19T12:11:03.036Z,3.10
2023-01-19T12:12:10.599Z,2.90
2023-01-19T12:13:20.907Z,2.83
2023-01-19T12:14:35.201Z,3.00
2023-01-19T12:15:42.181Z,2.93
2023-01-19T12:16:46.248Z,3.00
2023-01-19T12:17:56.247Z,3.10
2023-01-19T12:19:04.504Z,2.93
2023-01-19T12:20:30.259Z,3.33
2023-01-19T12:21:32.531Z,3.23
2023-01-19T12:22:49.509Z,3.30
2023-01-19T12:24:01.450Z,2.90
2023-01-19T12:25:19.211Z,3.10
2023-01-19T12:26:42.843Z,3.50
2023-01-19T12:27:48.564Z,3.20
2023-01-19T12:28:53.133Z,3.53
2023-01-19T12:29:55.466Z,3.20
2023-01-19T12:31:00.465Z,3.23
2023-01-19T12:32:18.169Z,3.27
2023-01-19T12:33:40.049Z,3.47
2023-01-19T12:34:50.237Z,3.40
2023-01-19T12:36:01.088Z,3.70
2023-01-19T12:37:07.133Z,3.50
2023-01-19T12:38:39.505Z,3.43
2023-01-19T12:39:48.967Z,3.63
2023-01-19T12:40:51.219Z,3.50
2023-01-19T12:42:06.731Z,3.93
2023-01-19T12:43:16.562Z,3.53
2023-01-19T12:44:24.736Z,3.57
2023-01-19T12:45:52.982Z,3.50
2023-01-19T12:46:55.232Z,3.70
2023-01-19T12:47:57.849Z,3.67
2023-01-19T12:49:06.975Z,3.60
2023-01-19T12:50:16.944Z,3.80
2023-01-19T12:51:26.797Z,3.80
2023-01-19T12:52:36.056Z,3.47
2023-01-19T12:53:38.365Z,3.60
2023-01-19T12:54:49.710Z,3.87
2023-01-19T12:56:01.287Z,3.70
2023-01-19T12:57:18.589Z,3.67
2023-01-19T12:58:25.580Z,4.30
2023-01-19T12:59:28.876Z,4.40
2023-01-19T13:00:32.734Z,4.80
2023-01-19T13:01:34.990Z,5.33
2023-01-19T13:02:47.434Z,4.90
2023-01-19T13:04:26.355Z,4.90
2023-01-19T13:05:43.048Z,5.07
2023-01-19T13:07:07.386Z,4.80
2023-01-19T13:08:09.602Z,4.63
2023-01-19T13:09:31.947Z,5.10
2023-01-19T13:10:55.482Z,4.63
2023-01-19T13:12:22.851Z,4.40
2023-01-19T13:13:37.942Z,4.27
2023-01-19T13:14:42.736Z,4.07
2023-01-19T13:15:45.160Z,4.43
2023-01-19T13:17:00.341Z,3.73
2023-01-19T13:18:03.455Z,3.63
2023-01-19T13:19:05.907Z,3.93
2023-01-19T13:20:17.226Z,3.50
2023-01-19T13:21:49.582Z,3.83
2023-01-19T13:23:20.836Z,3.67
2023-01-19T13:24:23.567Z,3.93
2023-01-19T13:25:35.666Z,3.70
2023-01-19T13:26:59.044Z,3.80
2023-01-19T13:28:02.676Z,3.60
2023-01-19T13:29:13.696Z,3.40
2023-01-19T13:30:20.796Z,3.57
2023-01-19T13:31:25.393Z,3.80
2023-01-19T13:32:27.812Z,4.03
2023-01-19T13:33:40.574Z,4.10
2023-01-19T13:34:47.957Z,4.03
2023-01-19T13:35:55.937Z,3.63
2023-01-19T13:36:59.540Z,3.87
2023-01-19T13:38:02.852Z,4.20
2023-01-19T13:39:12.531Z,3.50
2023-01-19T13:40:23.275Z,4.20
2023-01-19T13:41:29.816Z,3.90
2023-01-19T13:42:41.590Z,4.40
2023-01-19T13:43:44.086Z,4.10
2023-01-19T13:44:52.622Z,3.87
2023-01-19T13:45:55.674Z,4.30
2023-01-19T13:47:00.008Z,4.10
2023-01-19T13:48:06.477Z,4.70
2023-01-19T13:49:33.414Z,4.33
2023-01-19T13:50:39.139Z,4.47
2023-01-19T13:51:41.353Z,4.87
2023-01-19T13:52:43.609Z,4.30
2023-01-19T13:54:03.882Z,4.93
2023-01-19T13:55:09.393Z,4.60
2023-01-19T13:56:20.927Z,4.70
2023-01-19T13:57:34.061Z,4.70
2023-01-19T13:58:36.257Z,4.53
2023-01-19T13:59:41.515Z,4.70
2023-01-19T14:00:46.738Z,4.57
2023-01-19T14:01:51.185Z,4.40
2023-01-19T14:02:59.903Z,4.77
2023-01-19T14:04:02.276Z,4.70
2023-01-19T14:05:14.988Z,4.73
2023-01-19T14:06:37.927Z,4.83
2023-01-19T14:07:40.203Z,4.50
2023-01-19T14:08:42.481Z,4.67
2023-01-19T14:09:44.689Z,4.97
2023-01-19T14:11:02.142Z,4.67
2023-01-19T14:12:14.195Z,4.70
2023-01-19T14:13:18.463Z,4.60
2023-01-19T14:14:27.992Z,4.80
2023-01-19T14:15:32.507Z,4.67
2023-01-19T14:16:35.121Z,4.83
2023-01-19T14:17:37.354Z,5.40
2023-01-19T14:18:39.927Z,4.97
2023-01-19T14:19:56.510Z,5.13
2023-01-19T14:21:04.811Z,5.20
2023-01-19T14:22:07.569Z,5.10
2023-01-19T14:23:47.127Z,5.00
2023-01-19T14:24:49.456Z,5.40
2023-01-19T14:25:51.697Z,5.13
2023-01-19T14:26:54.903Z,4.87
2023-01-19T14:28:48.479Z,5.00
2023-01-19T14:29:53.881Z,5.07
2023-01-19T14:30:58.401Z,5.10
2023-01-19T14:32:00.534Z,5.27
2023-01-19T14:33:04.003Z,5.30
2023-01-19T14:34:30.390Z,5.70
2023-01-19T14:35:34.780Z,5.20
2023-01-19T14:36:39.883Z,5.50
2023-01-19T14:37:48.968Z,5.30
2023-01-19T14:38:52.345Z,5.40
2023-01-19T14:40:13.002Z,6.00
2023-01-19T14:41:26.671Z,5.20
2023-01-19T14:42:33.446Z,5.03
2023-01-19T14:43:35.642Z,5.17
2023-01-19T14:44:39.780Z,5.87